sensor_id;sensor_type;location;lat;lon;timestamp;temperature;humidity
3418;DHT22;68007;51.312;12.372;2023-12-20T00:00:37;7.00;99.90
3418;DHT22;68007;51.312;12.372;2023-12-20T00:03:05;7.10;99.90
3418;DHT22;68007;51.312;12.372;2023-12-20T00:05:32;7.00;99.90
3418;DHT22;68007;51.312;12.372;2023-12-20T00:08:01;7.00;99.90
3418;DHT22;68007;51.312;12.372;2023-12-20T00:10:29;7.00;99.90
3418;DHT22;68007;51.312;12.372;2023-12-20T00:12:56;7.10;99.90
3418;DHT22;68007;51.312;12.372;2023-12-20T00:15:24;7.00;99.90
3418;DHT22;68007;51.312;12.372;2023-12-20T00:17:52;7.10;99.90
3418;DHT22;68007;51.312;12.372;2023-12-20T00:20:20;7.10;99.90
3418;DHT22;68007;51.312;12.372;2023-12-20T00:22:47;7.10;99.80
3418;DHT22;68007;51.312;12.372;2023-12-20T00:25:15;7.00;99.70
3418;DHT22;68007;51.312;12.372;2023-12-20T00:27:42;7.00;99.90
3418;DHT22;68007;51.312;12.372;2023-12-20T00:30:11;7.00;99.90
3418;DHT22;68007;51.312;12.372;2023-12-20T00:32:38;7.00;99.80
3418;DHT22;68007;51.312;12.372;2023-12-20T00:35:14;7.00;99.80
3418;DHT22;68007;51.312;12.372;2023-12-20T00:37:41;7.00;99.90
3418;DHT22;68007;51.312;12.372;2023-12-20T00:40:10;6.90;99.90
3418;DHT22;68007;51.312;12.372;2023-12-20T00:42:37;6.90;99.90
3418;DHT22;68007;51.312;12.372;2023-12-20T00:45:06;6.90;99.90
3418;DHT22;68007;51.312;12.372;2023-12-20T00:47:33;7.00;99.90
3418;DHT22;68007;51.312;12.372;2023-12-20T00:50:01;7.00;99.90
3418;DHT22;68007;51.312;12.372;2023-12-20T00:52:31;7.10;99.90
3418;DHT22;68007;51.312;12.372;2023-12-20T00:54:58;7.00;99.70
3418;DHT22;68007;51.312;12.372;2023-12-20T00:57:25;7.00;99.80
3418;DHT22;68007;51.312;12.372;2023-12-20T00:59:53;6.90;99.80
3418;DHT22;68007;51.312;12.372;2023-12-20T01:02:20;6.90;99.90
3418;DHT22;68007;51.312;12.372;2023-12-20T01:04:48;6.90;99.90
3418;DHT22;68007;51.312;12.372;2023-12-20T01:07:15;7.00;99.90
3418;DHT22;68007;51.312;12.372;2023-12-20T01:09:44;6.90;99.90
3418;DHT22;68007;51.312;12.372;2023-12-20T01:12:12;6.90;99.90
3418;DHT22;68007;51.312;12.372;2023-12-20T01:14:39;6.80;99.90
3418;DHT22;68007;51.312;12.372;2023-12-20T01:17:07;6.80;99.90
3418;DHT22;68007;51.312;12.372;2023-12-20T01:19:34;6.80;99.90
3418;DHT22;68007;51.312;12.372;2023-12-20T01:22:02;6.70;99.90
3418;DHT22;68007;51.312;12.372;2023-12-20T01:24:29;6.60;99.90
3418;DHT22;68007;51.312;12.372;2023-12-20T01:26:58;6.60;99.90
3418;DHT22;68007;51.312;12.372;2023-12-20T01:29:26;6.50;99.90
3418;DHT22;68007;51.312;12.372;2023-12-20T01:31:53;6.50;99.90
3418;DHT22;68007;51.312;12.372;2023-12-20T01:34:20;6.50;99.90
3418;DHT22;68007;51.312;12.372;2023-12-20T01:36:48;6.50;99.90
3418;DHT22;68007;51.312;12.372;2023-12-20T01:39:15;6.60;99.90
3418;DHT22;68007;51.312;12.372;2023-12-20T01:41:43;6.50;99.90
3418;DHT22;68007;51.312;12.372;2023-12-20T01:44:12;6.60;99.90
3418;DHT22;68007;51.312;12.372;2023-12-20T01:46:40;6.60;99.90
3418;DHT22;68007;51.312;12.372;2023-12-20T01:49:08;6.60;99.90
3418;DHT22;68007;51.312;12.372;2023-12-20T01:51:36;6.70;99.90
3418;DHT22;68007;51.312;12.372;2023-12-20T01:54:04;6.70;99.90
3418;DHT22;68007;51.312;12.372;2023-12-20T01:56:32;6.70;99.90
3418;DHT22;68007;51.312;12.372;2023-12-20T01:59:00;6.80;99.90
3418;DHT22;68007;51.312;12.372;2023-12-20T02:01:30;6.80;99.90
3418;DHT22;68007;51.312;12.372;2023-12-20T02:03:59;6.80;99.90
3418;DHT22;68007;51.312;12.372;2023-12-20T02:06:29;6.80;99.90
3418;DHT22;68007;51.312;12.372;2023-12-20T02:08:57;6.80;99.90
3418;DHT22;68007;51.312;12.372;2023-12-20T02:11:25;6.70;99.90
3418;DHT22;68007;51.312;12.372;2023-12-20T02:13:53;6.60;99.90
3418;DHT22;68007;51.312;12.372;2023-12-20T02:16:21;6.60;99.90
3418;DHT22;68007;51.312;12.372;2023-12-20T02:18:50;6.60;99.90
3418;DHT22;68007;51.312;12.372;2023-12-20T02:21:17;6.60;99.90
3418;DHT22;68007;51.312;12.372;2023-12-20T02:23:46;6.60;99.90
3418;DHT22;68007;51.312;12.372;2023-12-20T02:26:14;6.70;99.90
3418;DHT22;68007;51.312;12.372;2023-12-20T02:28:41;6.70;99.90
3418;DHT22;68007;51.312;12.372;2023-12-20T02:31:09;6.80;99.90
3418;DHT22;68007;51.312;12.372;2023-12-20T02:33:36;6.80;99.90
3418;DHT22;68007;51.312;12.372;2023-12-20T02:36:06;6.80;99.90
3418;DHT22;68007;51.312;12.372;2023-12-20T02:38:34;6.80;99.90
3418;DHT22;68007;51.312;12.372;2023-12-20T02:41:03;6.80;99.90
3418;DHT22;68007;51.312;12.372;2023-12-20T02:43:30;6.80;99.90
3418;DHT22;68007;51.312;12.372;2023-12-20T02:45:58;6.80;99.90
3418;DHT22;68007;51.312;12.372;2023-12-20T02:48:25;6.80;99.90
3418;DHT22;68007;51.312;12.372;2023-12-20T02:50:53;6.80;99.90
3418;DHT22;68007;51.312;12.372;2023-12-20T02:53:20;6.80;99.90
3418;DHT22;68007;51.312;12.372;2023-12-20T02:55:48;6.80;99.90
3418;DHT22;68007;51.312;12.372;2023-12-20T02:58:16;6.70;99.90
3418;DHT22;68007;51.312;12.372;2023-12-20T03:00:44;6.70;99.90
3418;DHT22;68007;51.312;12.372;2023-12-20T03:03:12;6.70;99.90
3418;DHT22;68007;51.312;12.372;2023-12-20T03:05:39;6.80;99.90
3418;DHT22;68007;51.312;12.372;2023-12-20T03:08:07;6.80;99.90
3418;DHT22;68007;51.312;12.372;2023-12-20T03:10:34;6.80;99.90
3418;DHT22;68007;51.312;12.372;2023-12-20T03:13:02;6.80;99.90
3418;DHT22;68007;51.312;12.372;2023-12-20T03:15:31;6.80;99.90
3418;DHT22;68007;51.312;12.372;2023-12-20T03:17:58;6.90;99.90
3418;DHT22;68007;51.312;12.372;2023-12-20T03:20:26;6.90;99.90
3418;DHT22;68007;51.312;12.372;2023-12-20T03:22:53;6.80;99.90
3418;DHT22;68007;51.312;12.372;2023-12-20T03:25:21;6.80;99.90
3418;DHT22;68007;51.312;12.372;2023-12-20T03:27:48;6.80;99.90
3418;DHT22;68007;51.312;12.372;2023-12-20T03:30:16;6.90;99.90
3418;DHT22;68007;51.312;12.372;2023-12-20T03:32:46;6.90;99.90
3418;DHT22;68007;51.312;12.372;2023-12-20T03:35:14;6.90;99.90
3418;DHT22;68007;51.312;12.372;2023-12-20T03:37:41;6.90;99.90
3418;DHT22;68007;51.312;12.372;2023-12-20T03:40:10;6.90;99.90
3418;DHT22;68007;51.312;12.372;2023-12-20T03:42:37;6.90;99.90
3418;DHT22;68007;51.312;12.372;2023-12-20T03:45:06;6.90;99.90
3418;DHT22;68007;51.312;12.372;2023-12-20T03:47:33;6.80;99.90
3418;DHT22;68007;51.312;12.372;2023-12-20T03:50:03;6.80;99.90
3418;DHT22;68007;51.312;12.372;2023-12-20T03:52:30;6.80;99.90
3418;DHT22;68007;51.312;12.372;2023-12-20T03:54:58;6.90;99.90
3418;DHT22;68007;51.312;12.372;2023-12-20T03:57:25;6.90;99.90
3418;DHT22;68007;51.312;12.372;2023-12-20T03:59:53;6.80;99.90
3418;DHT22;68007;51.312;12.372;2023-12-20T04:02:20;6.80;99.90
3418;DHT22;68007;51.312;12.372;2023-12-20T04:04:47;6.80;99.90
3418;DHT22;68007;51.312;12.372;2023-12-20T04:07:16;6.80;99.90
3418;DHT22;68007;51.312;12.372;2023-12-20T04:09:46;6.80;99.90
3418;DHT22;68007;51.312;12.372;2023-12-20T04:12:14;6.80;99.90
3418;DHT22;68007;51.312;12.372;2023-12-20T04:14:41;6.80;99.90
3418;DHT22;68007;51.312;12.372;2023-12-20T04:17:09;6.70;99.90
3418;DHT22;68007;51.312;12.372;2023-12-20T04:19:36;6.70;99.90
3418;DHT22;68007;51.312;12.372;2023-12-20T04:22:04;6.70;99.90
3418;DHT22;68007;51.312;12.372;2023-12-20T04:24:33;6.70;99.90
3418;DHT22;68007;51.312;12.372;2023-12-20T04:27:00;6.70;99.90
3418;DHT22;68007;51.312;12.372;2023-12-20T04:29:28;6.60;99.90
3418;DHT22;68007;51.312;12.372;2023-12-20T04:31:55;6.60;99.90
3418;DHT22;68007;51.312;12.372;2023-12-20T04:34:23;6.60;99.90
3418;DHT22;68007;51.312;12.372;2023-12-20T04:36:50;6.70;99.90
3418;DHT22;68007;51.312;12.372;2023-12-20T04:39:18;6.70;99.90
3418;DHT22;68007;51.312;12.372;2023-12-20T04:41:47;6.70;99.90
3418;DHT22;68007;51.312;12.372;2023-12-20T04:44:15;6.70;99.90
3418;DHT22;68007;51.312;12.372;2023-12-20T04:46:43;6.70;99.90
3418;DHT22;68007;51.312;12.372;2023-12-20T04:49:10;6.70;99.90
3418;DHT22;68007;51.312;12.372;2023-12-20T04:51:38;6.70;99.90
3418;DHT22;68007;51.312;12.372;2023-12-20T04:54:05;6.70;99.90
3418;DHT22;68007;51.312;12.372;2023-12-20T04:56:33;6.60;99.90
3418;DHT22;68007;51.312;12.372;2023-12-20T04:59:01;6.70;99.90
3418;DHT22;68007;51.312;12.372;2023-12-20T05:01:29;6.70;99.90
3418;DHT22;68007;51.312;12.372;2023-12-20T05:03:56;6.60;99.90
3418;DHT22;68007;51.312;12.372;2023-12-20T05:06:24;6.60;99.90
3418;DHT22;68007;51.312;12.372;2023-12-20T05:08:52;6.70;99.90
3418;DHT22;68007;51.312;12.372;2023-12-20T05:11:19;6.70;99.90
3418;DHT22;68007;51.312;12.372;2023-12-20T05:13:47;6.70;99.90
3418;DHT22;68007;51.312;12.372;2023-12-20T05:16:15;6.70;99.90
3418;DHT22;68007;51.312;12.372;2023-12-20T05:18:44;6.70;99.90
3418;DHT22;68007;51.312;12.372;2023-12-20T05:21:12;6.70;99.90
3418;DHT22;68007;51.312;12.372;2023-12-20T05:23:39;6.70;99.90
3418;DHT22;68007;51.312;12.372;2023-12-20T05:26:07;6.70;99.90
3418;DHT22;68007;51.312;12.372;2023-12-20T05:28:34;6.70;99.90
3418;DHT22;68007;51.312;12.372;2023-12-20T05:31:02;6.60;99.90
3418;DHT22;68007;51.312;12.372;2023-12-20T05:33:31;6.70;99.90
3418;DHT22;68007;51.312;12.372;2023-12-20T05:35:58;6.70;99.90
3418;DHT22;68007;51.312;12.372;2023-12-20T05:38:26;6.70;99.90
3418;DHT22;68007;51.312;12.372;2023-12-20T05:40:53;6.80;99.90
3418;DHT22;68007;51.312;12.372;2023-12-20T05:43:21;6.80;99.90
3418;DHT22;68007;51.312;12.372;2023-12-20T05:45:48;6.80;99.90
3418;DHT22;68007;51.312;12.372;2023-12-20T05:48:16;6.80;99.90
3418;DHT22;68007;51.312;12.372;2023-12-20T05:50:45;6.80;99.90
3418;DHT22;68007;51.312;12.372;2023-12-20T05:53:12;6.90;99.90
3418;DHT22;68007;51.312;12.372;2023-12-20T05:55:40;6.90;99.90
3418;DHT22;68007;51.312;12.372;2023-12-20T05:58:07;6.90;99.90
3418;DHT22;68007;51.312;12.372;2023-12-20T06:00:37;7.00;99.90
3418;DHT22;68007;51.312;12.372;2023-12-20T06:03:05;7.10;99.90
3418;DHT22;68007;51.312;12.372;2023-12-20T06:05:33;7.20;99.90
3418;DHT22;68007;51.312;12.372;2023-12-20T06:08:01;7.20;99.90
3418;DHT22;68007;51.312;12.372;2023-12-20T06:10:29;7.10;99.90
3418;DHT22;68007;51.312;12.372;2023-12-20T06:12:56;7.10;99.90
3418;DHT22;68007;51.312;12.372;2023-12-20T06:15:25;7.10;99.90
3418;DHT22;68007;51.312;12.372;2023-12-20T06:17:52;7.10;99.90
3418;DHT22;68007;51.312;12.372;2023-12-20T06:20:20;7.10;99.90
3418;DHT22;68007;51.312;12.372;2023-12-20T06:22:47;7.20;99.90
3418;DHT22;68007;51.312;12.372;2023-12-20T06:25:16;7.10;99.90
3418;DHT22;68007;51.312;12.372;2023-12-20T06:27:44;7.10;99.90
3418;DHT22;68007;51.312;12.372;2023-12-20T06:30:12;7.00;99.90
3418;DHT22;68007;51.312;12.372;2023-12-20T06:32:39;7.10;99.90
3418;DHT22;68007;51.312;12.372;2023-12-20T06:35:08;7.10;99.90
3418;DHT22;68007;51.312;12.372;2023-12-20T06:37:36;7.10;99.90
3418;DHT22;68007;51.312;12.372;2023-12-20T06:40:05;7.00;99.70
3418;DHT22;68007;51.312;12.372;2023-12-20T06:42:34;6.90;99.70
3418;DHT22;68007;51.312;12.372;2023-12-20T06:45:01;6.80;99.90
3418;DHT22;68007;51.312;12.372;2023-12-20T06:47:29;6.80;99.90
3418;DHT22;68007;51.312;12.372;2023-12-20T06:49:57;6.80;99.90
3418;DHT22;68007;51.312;12.372;2023-12-20T06:52:24;6.80;99.90
3418;DHT22;68007;51.312;12.372;2023-12-20T06:54:51;6.80;99.90
3418;DHT22;68007;51.312;12.372;2023-12-20T06:57:19;6.70;99.90
3418;DHT22;68007;51.312;12.372;2023-12-20T06:59:48;6.70;99.90
3418;DHT22;68007;51.312;12.372;2023-12-20T07:02:15;6.60;99.90
3418;DHT22;68007;51.312;12.372;2023-12-20T07:04:43;6.60;99.90
3418;DHT22;68007;51.312;12.372;2023-12-20T07:07:11;6.60;99.90
3418;DHT22;68007;51.312;12.372;2023-12-20T07:09:38;6.60;99.90
3418;DHT22;68007;51.312;12.372;2023-12-20T07:12:08;6.60;99.90
3418;DHT22;68007;51.312;12.372;2023-12-20T07:14:36;6.70;99.90
3418;DHT22;68007;51.312;12.372;2023-12-20T07:17:05;6.70;99.90
3418;DHT22;68007;51.312;12.372;2023-12-20T07:19:37;6.70;99.90
3418;DHT22;68007;51.312;12.372;2023-12-20T07:22:05;6.70;99.90
3418;DHT22;68007;51.312;12.372;2023-12-20T07:24:33;6.60;99.80
3418;DHT22;68007;51.312;12.372;2023-12-20T07:27:01;6.60;99.80
3418;DHT22;68007;51.312;12.372;2023-12-20T07:29:29;6.60;99.80
3418;DHT22;68007;51.312;12.372;2023-12-20T07:31:56;6.60;99.60
3418;DHT22;68007;51.312;12.372;2023-12-20T07:34:25;6.70;99.70
3418;DHT22;68007;51.312;12.372;2023-12-20T07:36:52;6.70;99.20
3418;DHT22;68007;51.312;12.372;2023-12-20T07:39:20;6.80;99.00
3418;DHT22;68007;51.312;12.372;2023-12-20T07:41:48;6.80;99.00
3418;DHT22;68007;51.312;12.372;2023-12-20T07:44:15;6.80;99.00
3418;DHT22;68007;51.312;12.372;2023-12-20T07:46:43;6.90;99.00
3418;DHT22;68007;51.312;12.372;2023-12-20T07:49:10;6.90;98.80
3418;DHT22;68007;51.312;12.372;2023-12-20T07:51:39;6.90;98.70
3418;DHT22;68007;51.312;12.372;2023-12-20T07:54:07;6.90;98.50
3418;DHT22;68007;51.312;12.372;2023-12-20T07:56:35;6.90;98.30
3418;DHT22;68007;51.312;12.372;2023-12-20T07:59:02;6.80;98.20
3418;DHT22;68007;51.312;12.372;2023-12-20T08:01:30;6.80;98.40
3418;DHT22;68007;51.312;12.372;2023-12-20T08:03:57;6.90;98.40
3418;DHT22;68007;51.312;12.372;2023-12-20T08:06:25;6.90;98.30
3418;DHT22;68007;51.312;12.372;2023-12-20T08:08:54;6.90;98.00
3418;DHT22;68007;51.312;12.372;2023-12-20T08:11:21;6.90;98.20
3418;DHT22;68007;51.312;12.372;2023-12-20T08:13:49;6.90;98.10
3418;DHT22;68007;51.312;12.372;2023-12-20T08:16:17;6.90;98.10
3418;DHT22;68007;51.312;12.372;2023-12-20T08:18:45;6.90;98.10
3418;DHT22;68007;51.312;12.372;2023-12-20T08:21:13;7.00;98.10
3418;DHT22;68007;51.312;12.372;2023-12-20T08:23:40;7.00;98.10
3418;DHT22;68007;51.312;12.372;2023-12-20T08:26:09;7.10;98.10
3418;DHT22;68007;51.312;12.372;2023-12-20T08:28:37;7.00;97.60
3418;DHT22;68007;51.312;12.372;2023-12-20T08:31:04;7.10;97.50
3418;DHT22;68007;51.312;12.372;2023-12-20T08:33:32;7.00;97.70
3418;DHT22;68007;51.312;12.372;2023-12-20T08:35:59;7.00;97.60
3418;DHT22;68007;51.312;12.372;2023-12-20T08:38:31;6.90;97.50
3418;DHT22;68007;51.312;12.372;2023-12-20T08:40:58;6.90;97.70
3418;DHT22;68007;51.312;12.372;2023-12-20T08:43:28;6.80;97.60
3418;DHT22;68007;51.312;12.372;2023-12-20T08:45:56;6.80;97.90
3418;DHT22;68007;51.312;12.372;2023-12-20T08:48:23;6.70;97.90
3418;DHT22;68007;51.312;12.372;2023-12-20T08:50:51;6.60;98.10
3418;DHT22;68007;51.312;12.372;2023-12-20T08:53:19;6.60;98.30
3418;DHT22;68007;51.312;12.372;2023-12-20T08:55:46;6.60;98.30
3418;DHT22;68007;51.312;12.372;2023-12-20T08:58:14;6.60;98.20
3418;DHT22;68007;51.312;12.372;2023-12-20T09:00:43;6.60;98.20
3418;DHT22;68007;51.312;12.372;2023-12-20T09:03:10;6.60;98.10
3418;DHT22;68007;51.312;12.372;2023-12-20T09:05:38;6.60;98.00
3418;DHT22;68007;51.312;12.372;2023-12-20T09:08:06;6.50;98.00
3418;DHT22;68007;51.312;12.372;2023-12-20T09:10:34;6.50;98.20
3418;DHT22;68007;51.312;12.372;2023-12-20T09:13:01;6.50;98.20
3418;DHT22;68007;51.312;12.372;2023-12-20T09:15:30;6.50;98.20
3418;DHT22;68007;51.312;12.372;2023-12-20T09:18:02;6.50;98.30
3418;DHT22;68007;51.312;12.372;2023-12-20T09:20:29;6.50;98.10
3418;DHT22;68007;51.312;12.372;2023-12-20T09:22:57;6.50;98.10
3418;DHT22;68007;51.312;12.372;2023-12-20T09:25:25;6.50;98.10
3418;DHT22;68007;51.312;12.372;2023-12-20T09:27:53;6.50;98.10
3418;DHT22;68007;51.312;12.372;2023-12-20T09:30:20;6.50;98.10
3418;DHT22;68007;51.312;12.372;2023-12-20T09:32:48;6.60;98.10
3418;DHT22;68007;51.312;12.372;2023-12-20T09:35:17;6.50;97.90
3418;DHT22;68007;51.312;12.372;2023-12-20T09:37:44;6.50;98.00
3418;DHT22;68007;51.312;12.372;2023-12-20T09:40:13;6.50;98.30
3418;DHT22;68007;51.312;12.372;2023-12-20T09:42:47;6.60;97.90
3418;DHT22;68007;51.312;12.372;2023-12-20T09:45:19;6.60;97.80
3418;DHT22;68007;51.312;12.372;2023-12-20T09:47:49;6.60;97.80
3418;DHT22;68007;51.312;12.372;2023-12-20T09:50:20;6.60;97.70
3418;DHT22;68007;51.312;12.372;2023-12-20T09:52:50;6.60;97.80
3418;DHT22;68007;51.312;12.372;2023-12-20T09:55:18;6.60;97.80
3418;DHT22;68007;51.312;12.372;2023-12-20T09:57:46;6.60;97.70
3418;DHT22;68007;51.312;12.372;2023-12-20T10:00:14;6.60;97.70
3418;DHT22;68007;51.312;12.372;2023-12-20T10:02:48;6.70;97.50
3418;DHT22;68007;51.312;12.372;2023-12-20T10:05:26;6.70;97.50
3418;DHT22;68007;51.312;12.372;2023-12-20T10:07:54;6.70;97.30
3418;DHT22;68007;51.312;12.372;2023-12-20T10:10:22;6.70;97.20
3418;DHT22;68007;51.312;12.372;2023-12-20T10:13:02;6.70;97.20
3418;DHT22;68007;51.312;12.372;2023-12-20T10:15:30;6.70;97.30
3418;DHT22;68007;51.312;12.372;2023-12-20T10:17:58;6.60;97.40
3418;DHT22;68007;51.312;12.372;2023-12-20T10:20:27;6.70;97.50
3418;DHT22;68007;51.312;12.372;2023-12-20T10:22:55;6.70;97.30
3418;DHT22;68007;51.312;12.372;2023-12-20T10:25:24;6.80;97.30
3418;DHT22;68007;51.312;12.372;2023-12-20T10:28:09;6.80;97.30
3418;DHT22;68007;51.312;12.372;2023-12-20T10:30:36;6.90;97.20
3418;DHT22;68007;51.312;12.372;2023-12-20T10:33:06;6.90;97.10
3418;DHT22;68007;51.312;12.372;2023-12-20T10:35:35;7.00;97.10
3418;DHT22;68007;51.312;12.372;2023-12-20T10:38:04;7.00;96.80
3418;DHT22;68007;51.312;12.372;2023-12-20T10:40:34;7.00;96.60
3418;DHT22;68007;51.312;12.372;2023-12-20T10:43:04;7.00;96.50
3418;DHT22;68007;51.312;12.372;2023-12-20T10:45:32;7.00;96.40
3418;DHT22;68007;51.312;12.372;2023-12-20T10:48:01;7.10;96.40
3418;DHT22;68007;51.312;12.372;2023-12-20T10:50:30;7.10;96.10
3418;DHT22;68007;51.312;12.372;2023-12-20T10:52:59;7.10;95.90
3418;DHT22;68007;51.312;12.372;2023-12-20T10:55:26;7.10;95.90
3418;DHT22;68007;51.312;12.372;2023-12-20T10:57:58;7.20;95.70
3418;DHT22;68007;51.312;12.372;2023-12-20T11:00:28;7.20;95.60
3418;DHT22;68007;51.312;12.372;2023-12-20T11:03:00;7.30;95.70
3418;DHT22;68007;51.312;12.372;2023-12-20T11:05:36;7.30;95.40
3418;DHT22;68007;51.312;12.372;2023-12-20T11:08:11;7.30;95.30
3418;DHT22;68007;51.312;12.372;2023-12-20T11:10:46;7.30;95.00
3418;DHT22;68007;51.312;12.372;2023-12-20T11:13:20;7.40;95.10
3418;DHT22;68007;51.312;12.372;2023-12-20T11:15:49;7.40;95.20
3418;DHT22;68007;51.312;12.372;2023-12-20T11:18:17;7.40;94.90
3418;DHT22;68007;51.312;12.372;2023-12-20T11:20:44;7.40;94.90
3418;DHT22;68007;51.312;12.372;2023-12-20T11:23:13;7.50;94.80
3418;DHT22;68007;51.312;12.372;2023-12-20T11:25:48;7.50;94.70
3418;DHT22;68007;51.312;12.372;2023-12-20T11:28:21;7.50;94.50
3418;DHT22;68007;51.312;12.372;2023-12-20T11:30:51;7.50;94.50
3418;DHT22;68007;51.312;12.372;2023-12-20T11:33:22;7.50;94.50
3418;DHT22;68007;51.312;12.372;2023-12-20T11:35:49;7.50;94.50
3418;DHT22;68007;51.312;12.372;2023-12-20T11:38:20;7.50;94.50
3418;DHT22;68007;51.312;12.372;2023-12-20T11:40:48;7.50;94.30
3418;DHT22;68007;51.312;12.372;2023-12-20T11:43:29;7.50;94.40
3418;DHT22;68007;51.312;12.372;2023-12-20T11:46:03;7.50;94.70
3418;DHT22;68007;51.312;12.372;2023-12-20T11:48:32;7.50;94.40
3418;DHT22;68007;51.312;12.372;2023-12-20T11:50:59;7.50;94.50
3418;DHT22;68007;51.312;12.372;2023-12-20T11:53:28;7.50;94.60
3418;DHT22;68007;51.312;12.372;2023-12-20T11:55:57;7.50;94.70
3418;DHT22;68007;51.312;12.372;2023-12-20T11:58:25;7.50;94.30
3418;DHT22;68007;51.312;12.372;2023-12-20T12:00:53;7.40;94.20
3418;DHT22;68007;51.312;12.372;2023-12-20T12:03:22;7.40;94.40
3418;DHT22;68007;51.312;12.372;2023-12-20T12:05:50;7.30;94.30
3418;DHT22;68007;51.312;12.372;2023-12-20T12:08:18;7.30;94.40
3418;DHT22;68007;51.312;12.372;2023-12-20T12:10:46;7.30;94.30
3418;DHT22;68007;51.312;12.372;2023-12-20T12:13:14;7.30;94.30
3418;DHT22;68007;51.312;12.372;2023-12-20T12:15:42;7.40;94.30
3418;DHT22;68007;51.312;12.372;2023-12-20T12:18:10;7.30;94.20
3418;DHT22;68007;51.312;12.372;2023-12-20T12:20:38;7.30;94.30
3418;DHT22;68007;51.312;12.372;2023-12-20T12:23:06;7.30;94.40
3418;DHT22;68007;51.312;12.372;2023-12-20T12:25:35;7.30;94.40
3418;DHT22;68007;51.312;12.372;2023-12-20T12:28:05;7.40;94.40
3418;DHT22;68007;51.312;12.372;2023-12-20T12:30:33;7.40;94.30
3418;DHT22;68007;51.312;12.372;2023-12-20T12:33:00;7.40;94.80
3418;DHT22;68007;51.312;12.372;2023-12-20T12:35:28;7.40;94.60
3418;DHT22;68007;51.312;12.372;2023-12-20T12:37:59;7.40;94.50
3418;DHT22;68007;51.312;12.372;2023-12-20T12:40:26;7.40;94.50
3418;DHT22;68007;51.312;12.372;2023-12-20T12:42:54;7.50;94.50
3418;DHT22;68007;51.312;12.372;2023-12-20T12:45:22;7.50;94.60
3418;DHT22;68007;51.312;12.372;2023-12-20T12:47:51;7.50;94.30
3418;DHT22;68007;51.312;12.372;2023-12-20T12:50:21;7.60;94.20
3418;DHT22;68007;51.312;12.372;2023-12-20T12:52:48;7.60;94.10
3418;DHT22;68007;51.312;12.372;2023-12-20T12:55:16;7.50;94.20
3418;DHT22;68007;51.312;12.372;2023-12-20T12:57:43;7.60;94.30
3418;DHT22;68007;51.312;12.372;2023-12-20T13:00:12;7.60;94.20
3418;DHT22;68007;51.312;12.372;2023-12-20T13:02:41;7.60;94.30
3418;DHT22;68007;51.312;12.372;2023-12-20T13:05:09;7.70;94.10
3418;DHT22;68007;51.312;12.372;2023-12-20T13:07:36;7.80;94.30
3418;DHT22;68007;51.312;12.372;2023-12-20T13:10:06;8.10;94.10
3418;DHT22;68007;51.312;12.372;2023-12-20T13:12:34;8.10;93.50
3418;DHT22;68007;51.312;12.372;2023-12-20T13:15:01;8.30;93.30
3418;DHT22;68007;51.312;12.372;2023-12-20T13:17:30;8.40;92.90
3418;DHT22;68007;51.312;12.372;2023-12-20T13:19:58;8.50;92.90
3418;DHT22;68007;51.312;12.372;2023-12-20T13:22:26;8.60;92.80
3418;DHT22;68007;51.312;12.372;2023-12-20T13:24:54;8.60;92.80
3418;DHT22;68007;51.312;12.372;2023-12-20T13:27:21;8.80;92.80
3418;DHT22;68007;51.312;12.372;2023-12-20T13:29:49;8.90;92.40
3418;DHT22;68007;51.312;12.372;2023-12-20T13:32:16;9.00;92.10
3418;DHT22;68007;51.312;12.372;2023-12-20T13:34:46;9.10;91.90
3418;DHT22;68007;51.312;12.372;2023-12-20T13:37:15;9.20;91.60
3418;DHT22;68007;51.312;12.372;2023-12-20T13:39:42;9.20;91.40
3418;DHT22;68007;51.312;12.372;2023-12-20T13:42:10;9.30;91.60
3418;DHT22;68007;51.312;12.372;2023-12-20T13:44:37;9.30;91.30
3418;DHT22;68007;51.312;12.372;2023-12-20T13:47:05;9.30;91.30
3418;DHT22;68007;51.312;12.372;2023-12-20T13:49:33;9.30;91.40
3418;DHT22;68007;51.312;12.372;2023-12-20T13:52:01;9.40;91.10
3418;DHT22;68007;51.312;12.372;2023-12-20T13:54:31;9.40;91.10
3418;DHT22;68007;51.312;12.372;2023-12-20T13:56:59;9.40;90.90
3418;DHT22;68007;51.312;12.372;2023-12-20T13:59:26;9.40;90.80
3418;DHT22;68007;51.312;12.372;2023-12-20T14:01:54;9.40;90.70
3418;DHT22;68007;51.312;12.372;2023-12-20T14:04:23;9.40;90.90
3418;DHT22;68007;51.312;12.372;2023-12-20T14:06:50;9.30;90.70
3418;DHT22;68007;51.312;12.372;2023-12-20T14:09:18;9.30;90.80
3418;DHT22;68007;51.312;12.372;2023-12-20T14:11:47;9.20;90.90
3418;DHT22;68007;51.312;12.372;2023-12-20T14:14:14;9.20;91.00
3418;DHT22;68007;51.312;12.372;2023-12-20T14:16:42;9.10;90.90
3418;DHT22;68007;51.312;12.372;2023-12-20T14:19:11;9.10;91.00
3418;DHT22;68007;51.312;12.372;2023-12-20T14:21:38;8.90;91.20
3418;DHT22;68007;51.312;12.372;2023-12-20T14:24:06;8.90;91.10
3418;DHT22;68007;51.312;12.372;2023-12-20T14:26:34;8.70;91.50
3418;DHT22;68007;51.312;12.372;2023-12-20T14:29:03;8.70;91.60
3418;DHT22;68007;51.312;12.372;2023-12-20T14:31:30;8.60;91.70
3418;DHT22;68007;51.312;12.372;2023-12-20T14:33:58;8.50;91.70
3418;DHT22;68007;51.312;12.372;2023-12-20T14:36:25;8.50;91.90
3418;DHT22;68007;51.312;12.372;2023-12-20T14:38:53;8.30;92.20
3418;DHT22;68007;51.312;12.372;2023-12-20T14:41:20;8.30;92.30
3418;DHT22;68007;51.312;12.372;2023-12-20T14:43:50;8.20;92.50
3418;DHT22;68007;51.312;12.372;2023-12-20T14:46:20;8.10;92.60
3418;DHT22;68007;51.312;12.372;2023-12-20T14:48:48;8.10;92.80
3418;DHT22;68007;51.312;12.372;2023-12-20T14:51:16;8.10;92.80
3418;DHT22;68007;51.312;12.372;2023-12-20T14:53:43;8.00;93.00
3418;DHT22;68007;51.312;12.372;2023-12-20T14:56:13;8.00;93.00
3418;DHT22;68007;51.312;12.372;2023-12-20T14:58:41;7.90;93.10
3418;DHT22;68007;51.312;12.372;2023-12-20T15:01:08;7.90;93.30
3418;DHT22;68007;51.312;12.372;2023-12-20T15:03:37;7.90;93.40
3418;DHT22;68007;51.312;12.372;2023-12-20T15:06:06;7.80;93.50
3418;DHT22;68007;51.312;12.372;2023-12-20T15:08:35;7.80;93.50
3418;DHT22;68007;51.312;12.372;2023-12-20T15:11:02;7.80;93.60
3418;DHT22;68007;51.312;12.372;2023-12-20T15:13:31;7.80;93.70
3418;DHT22;68007;51.312;12.372;2023-12-20T15:15:59;7.80;93.60
3418;DHT22;68007;51.312;12.372;2023-12-20T15:18:26;7.80;93.70
3418;DHT22;68007;51.312;12.372;2023-12-20T15:20:55;7.80;93.80
3418;DHT22;68007;51.312;12.372;2023-12-20T15:23:23;7.80;93.70
3418;DHT22;68007;51.312;12.372;2023-12-20T15:25:52;7.70;93.70
3418;DHT22;68007;51.312;12.372;2023-12-20T15:28:20;7.70;93.90
3418;DHT22;68007;51.312;12.372;2023-12-20T15:30:47;7.70;94.00
3418;DHT22;68007;51.312;12.372;2023-12-20T15:33:15;7.60;94.10
3418;DHT22;68007;51.312;12.372;2023-12-20T15:35:42;7.60;94.20
3418;DHT22;68007;51.312;12.372;2023-12-20T15:38:12;7.50;94.20
3418;DHT22;68007;51.312;12.372;2023-12-20T15:40:40;7.50;94.20
3418;DHT22;68007;51.312;12.372;2023-12-20T15:43:07;7.50;94.40
3418;DHT22;68007;51.312;12.372;2023-12-20T15:45:35;7.50;94.40
3418;DHT22;68007;51.312;12.372;2023-12-20T15:48:03;7.40;94.60
3418;DHT22;68007;51.312;12.372;2023-12-20T15:50:31;7.50;94.60